sensor_id;sensor_type;location;lat;lon;timestamp;temperature;humidity
14487;DHT22;7329;50.866;4.366;2022-08-25T00:00:10;25.70;99.90
14487;DHT22;7329;50.866;4.366;2022-08-25T00:02:14;25.70;99.90
14487;DHT22;7329;50.866;4.366;2022-08-25T00:04:18;25.70;99.90
14487;DHT22;7329;50.866;4.366;2022-08-25T00:06:20;25.70;99.90
14487;DHT22;7329;50.866;4.366;2022-08-25T00:08:22;25.70;99.90
14487;DHT22;7329;50.866;4.366;2022-08-25T00:10:25;25.70;99.90
14487;DHT22;7329;50.866;4.366;2022-08-25T00:12:28;25.70;99.90
14487;DHT22;7329;50.866;4.366;2022-08-25T00:14:33;25.70;99.90
14487;DHT22;7329;50.866;4.366;2022-08-25T00:16:36;25.70;99.90
14487;DHT22;7329;50.866;4.366;2022-08-25T00:18:42;25.70;99.90
14487;DHT22;7329;50.866;4.366;2022-08-25T00:20:46;25.60;99.90
14487;DHT22;7329;50.866;4.366;2022-08-25T00:22:48;25.60;99.90
14487;DHT22;7329;50.866;4.366;2022-08-25T00:24:50;25.60;99.90
14487;DHT22;7329;50.866;4.366;2022-08-25T00:26:55;25.60;99.90
14487;DHT22;7329;50.866;4.366;2022-08-25T00:28:57;25.70;99.90
14487;DHT22;7329;50.866;4.366;2022-08-25T00:30:59;25.70;99.90
14487;DHT22;7329;50.866;4.366;2022-08-25T00:33:02;25.60;99.90
14487;DHT22;7329;50.866;4.366;2022-08-25T00:35:06;25.70;99.90
14487;DHT22;7329;50.866;4.366;2022-08-25T00:37:09;25.60;99.90
14487;DHT22;7329;50.866;4.366;2022-08-25T00:39:11;25.60;99.90
14487;DHT22;7329;50.866;4.366;2022-08-25T00:41:16;25.60;99.90
14487;DHT22;7329;50.866;4.366;2022-08-25T00:43:21;25.60;99.90
14487;DHT22;7329;50.866;4.366;2022-08-25T00:45:23;25.60;99.90
14487;DHT22;7329;50.866;4.366;2022-08-25T00:47:26;25.60;99.90
14487;DHT22;7329;50.866;4.366;2022-08-25T00:49:31;25.60;99.90
14487;DHT22;7329;50.866;4.366;2022-08-25T00:51:39;25.60;99.90
14487;DHT22;7329;50.866;4.366;2022-08-25T00:53:43;25.60;99.90
14487;DHT22;7329;50.866;4.366;2022-08-25T00:55:45;25.60;99.90
14487;DHT22;7329;50.866;4.366;2022-08-25T00:57:52;25.60;99.90
14487;DHT22;7329;50.866;4.366;2022-08-25T00:59:56;25.50;99.90
14487;DHT22;7329;50.866;4.366;2022-08-25T01:01:59;25.50;99.90
14487;DHT22;7329;50.866;4.366;2022-08-25T01:04:02;25.60;99.90
14487;DHT22;7329;50.866;4.366;2022-08-25T01:06:05;25.60;99.90
14487;DHT22;7329;50.866;4.366;2022-08-25T01:08:13;25.60;99.90
14487;DHT22;7329;50.866;4.366;2022-08-25T01:10:17;25.60;99.90
14487;DHT22;7329;50.866;4.366;2022-08-25T01:12:20;25.60;99.90
14487;DHT22;7329;50.866;4.366;2022-08-25T01:14:23;25.60;99.90
14487;DHT22;7329;50.866;4.366;2022-08-25T01:16:26;25.60;99.90
14487;DHT22;7329;50.866;4.366;2022-08-25T01:18:31;25.50;99.90
14487;DHT22;7329;50.866;4.366;2022-08-25T01:20:42;25.60;99.90
14487;DHT22;7329;50.866;4.366;2022-08-25T01:22:48;25.60;99.90
14487;DHT22;7329;50.866;4.366;2022-08-25T01:24:56;25.50;99.90
14487;DHT22;7329;50.866;4.366;2022-08-25T01:27:00;25.50;99.90
14487;DHT22;7329;50.866;4.366;2022-08-25T01:29:05;25.50;99.90
14487;DHT22;7329;50.866;4.366;2022-08-25T01:31:26;25.50;99.90
14487;DHT22;7329;50.866;4.366;2022-08-25T01:33:29;25.50;99.90
14487;DHT22;7329;50.866;4.366;2022-08-25T01:35:31;25.50;99.90
14487;DHT22;7329;50.866;4.366;2022-08-25T01:37:34;25.50;99.90
14487;DHT22;7329;50.866;4.366;2022-08-25T01:39:38;25.50;99.90
14487;DHT22;7329;50.866;4.366;2022-08-25T01:41:48;25.50;99.90
14487;DHT22;7329;50.866;4.366;2022-08-25T01:43:51;25.50;99.90
14487;DHT22;7329;50.866;4.366;2022-08-25T01:45:53;25.50;99.90
14487;DHT22;7329;50.866;4.366;2022-08-25T01:47:55;25.50;99.90
14487;DHT22;7329;50.866;4.366;2022-08-25T01:49:58;25.50;99.90
14487;DHT22;7329;50.866;4.366;2022-08-25T01:52:05;25.50;99.90
14487;DHT22;7329;50.866;4.366;2022-08-25T01:54:08;25.50;99.90
14487;DHT22;7329;50.866;4.366;2022-08-25T01:56:13;25.50;99.90
14487;DHT22;7329;50.866;4.366;2022-08-25T01:58:16;25.50;99.90
14487;DHT22;7329;50.866;4.366;2022-08-25T02:00:19;25.50;99.90
14487;DHT22;7329;50.866;4.366;2022-08-25T02:02:22;25.50;99.90
14487;DHT22;7329;50.866;4.366;2022-08-25T02:04:24;25.50;99.90
14487;DHT22;7329;50.866;4.366;2022-08-25T02:06:31;25.50;99.90
14487;DHT22;7329;50.866;4.366;2022-08-25T02:08:36;25.50;99.90
14487;DHT22;7329;50.866;4.366;2022-08-25T02:10:38;25.50;99.90
14487;DHT22;7329;50.866;4.366;2022-08-25T02:12:42;25.50;99.90
14487;DHT22;7329;50.866;4.366;2022-08-25T02:14:44;25.50;99.90
14487;DHT22;7329;50.866;4.366;2022-08-25T02:16:49;25.50;99.90
14487;DHT22;7329;50.866;4.366;2022-08-25T02:18:51;25.50;99.90
14487;DHT22;7329;50.866;4.366;2022-08-25T02:20:54;25.50;99.90
14487;DHT22;7329;50.866;4.366;2022-08-25T02:22:56;25.50;99.90
14487;DHT22;7329;50.866;4.366;2022-08-25T02:24:58;25.50;99.90
14487;DHT22;7329;50.866;4.366;2022-08-25T02:27:00;25.50;99.90
14487;DHT22;7329;50.866;4.366;2022-08-25T02:29:05;25.50;99.90
14487;DHT22;7329;50.866;4.366;2022-08-25T02:31:08;25.50;99.90
14487;DHT22;7329;50.866;4.366;2022-08-25T02:33:10;25.50;99.90
14487;DHT22;7329;50.866;4.366;2022-08-25T02:35:13;25.50;99.90
14487;DHT22;7329;50.866;4.366;2022-08-25T02:37:15;25.50;99.90
14487;DHT22;7329;50.866;4.366;2022-08-25T02:39:18;25.50;99.90
14487;DHT22;7329;50.866;4.366;2022-08-25T02:41:23;25.50;99.90
14487;DHT22;7329;50.866;4.366;2022-08-25T02:43:26;25.50;99.90
14487;DHT22;7329;50.866;4.366;2022-08-25T02:45:30;25.50;99.90
14487;DHT22;7329;50.866;4.366;2022-08-25T02:47:35;25.50;99.90
14487;DHT22;7329;50.866;4.366;2022-08-25T02:49:37;25.40;99.90
14487;DHT22;7329;50.866;4.366;2022-08-25T02:51:40;25.40;99.90
14487;DHT22;7329;50.866;4.366;2022-08-25T02:53:42;25.40;99.90
14487;DHT22;7329;50.866;4.366;2022-08-25T02:55:46;25.40;99.90
14487;DHT22;7329;50.866;4.366;2022-08-25T02:57:48;25.40;99.90
14487;DHT22;7329;50.866;4.366;2022-08-25T02:59:50;25.40;99.90
14487;DHT22;7329;50.866;4.366;2022-08-25T03:01:55;25.40;99.90
14487;DHT22;7329;50.866;4.366;2022-08-25T03:03:58;25.40;99.90
14487;DHT22;7329;50.866;4.366;2022-08-25T03:06:00;25.40;99.90
14487;DHT22;7329;50.866;4.366;2022-08-25T03:08:04;25.40;99.90
14487;DHT22;7329;50.866;4.366;2022-08-25T03:10:09;25.40;99.90
14487;DHT22;7329;50.866;4.366;2022-08-25T03:12:11;25.40;99.90
14487;DHT22;7329;50.866;4.366;2022-08-25T03:14:14;25.40;99.90
14487;DHT22;7329;50.866;4.366;2022-08-25T03:16:17;25.40;99.90
14487;DHT22;7329;50.866;4.366;2022-08-25T03:18:21;25.40;99.90
14487;DHT22;7329;50.866;4.366;2022-08-25T03:20:24;25.40;99.90
14487;DHT22;7329;50.866;4.366;2022-08-25T03:22:27;25.40;99.90
14487;DHT22;7329;50.866;4.366;2022-08-25T03:24:30;25.40;99.90
14487;DHT22;7329;50.866;4.366;2022-08-25T03:26:32;25.40;99.90
14487;DHT22;7329;50.866;4.366;2022-08-25T03:28:52;25.40;99.90
14487;DHT22;7329;50.866;4.366;2022-08-25T03:30:55;25.30;99.90
14487;DHT22;7329;50.866;4.366;2022-08-25T03:33:00;25.40;99.90
14487;DHT22;7329;50.866;4.366;2022-08-25T03:35:04;25.40;99.90
14487;DHT22;7329;50.866;4.366;2022-08-25T03:37:07;25.30;99.90
14487;DHT22;7329;50.866;4.366;2022-08-25T03:39:10;25.30;99.90
14487;DHT22;7329;50.866;4.366;2022-08-25T03:41:14;25.30;99.90
14487;DHT22;7329;50.866;4.366;2022-08-25T03:43:17;25.30;99.90
14487;DHT22;7329;50.866;4.366;2022-08-25T03:45:20;25.30;99.90
14487;DHT22;7329;50.866;4.366;2022-08-25T03:47:23;25.40;99.90
14487;DHT22;7329;50.866;4.366;2022-08-25T03:49:26;25.30;99.90
14487;DHT22;7329;50.866;4.366;2022-08-25T03:51:33;25.30;99.90
14487;DHT22;7329;50.866;4.366;2022-08-25T03:53:35;25.30;99.90
14487;DHT22;7329;50.866;4.366;2022-08-25T03:55:37;25.30;99.90
14487;DHT22;7329;50.866;4.366;2022-08-25T03:57:41;25.30;99.90
14487;DHT22;7329;50.866;4.366;2022-08-25T03:59:43;25.30;99.90
14487;DHT22;7329;50.866;4.366;2022-08-25T04:01:46;25.30;99.90
14487;DHT22;7329;50.866;4.366;2022-08-25T04:03:49;25.30;99.90
14487;DHT22;7329;50.866;4.366;2022-08-25T04:05:51;25.30;99.90
14487;DHT22;7329;50.866;4.366;2022-08-25T04:07:55;25.30;99.90
14487;DHT22;7329;50.866;4.366;2022-08-25T04:09:57;25.30;99.90
14487;DHT22;7329;50.866;4.366;2022-08-25T04:11:59;25.30;99.90
14487;DHT22;7329;50.866;4.366;2022-08-25T04:14:02;25.30;99.90
14487;DHT22;7329;50.866;4.366;2022-08-25T04:16:10;25.30;99.90
14487;DHT22;7329;50.866;4.366;2022-08-25T04:18:13;25.30;99.90
14487;DHT22;7329;50.866;4.366;2022-08-25T04:20:15;25.30;99.90
14487;DHT22;7329;50.866;4.366;2022-08-25T04:22:18;25.30;99.90
14487;DHT22;7329;50.866;4.366;2022-08-25T04:24:22;25.30;99.90
14487;DHT22;7329;50.866;4.366;2022-08-25T04:26:27;25.30;99.90
14487;DHT22;7329;50.866;4.366;2022-08-25T04:28:30;25.30;99.90
14487;DHT22;7329;50.866;4.366;2022-08-25T04:30:32;25.30;99.90
14487;DHT22;7329;50.866;4.366;2022-08-25T04:32:35;25.30;99.90
14487;DHT22;7329;50.866;4.366;2022-08-25T04:34:37;25.30;99.90
14487;DHT22;7329;50.866;4.366;2022-08-25T04:36:40;25.30;99.90
14487;DHT22;7329;50.866;4.366;2022-08-25T04:38:43;25.30;99.90
14487;DHT22;7329;50.866;4.366;2022-08-25T04:40:54;25.30;99.90
14487;DHT22;7329;50.866;4.366;2022-08-25T04:42:57;25.30;99.90
14487;DHT22;7329;50.866;4.366;2022-08-25T04:44:59;25.30;99.90
14487;DHT22;7329;50.866;4.366;2022-08-25T04:47:04;25.30;99.90
14487;DHT22;7329;50.866;4.366;2022-08-25T04:49:06;25.20;99.90
14487;DHT22;7329;50.866;4.366;2022-08-25T04:51:10;25.30;99.90
14487;DHT22;7329;50.866;4.366;2022-08-25T04:53:13;25.30;99.90
14487;DHT22;7329;50.866;4.366;2022-08-25T04:55:16;25.30;99.90
14487;DHT22;7329;50.866;4.366;2022-08-25T04:57:19;25.30;99.90
14487;DHT22;7329;50.866;4.366;2022-08-25T04:59:21;25.30;99.90
14487;DHT22;7329;50.866;4.366;2022-08-25T05:01:24;25.30;99.90
14487;DHT22;7329;50.866;4.366;2022-08-25T05:03:27;25.30;99.90
14487;DHT22;7329;50.866;4.366;2022-08-25T05:05:36;25.20;99.90
14487;DHT22;7329;50.866;4.366;2022-08-25T05:07:38;25.20;99.90
14487;DHT22;7329;50.866;4.366;2022-08-25T05:09:40;25.20;99.90
14487;DHT22;7329;50.866;4.366;2022-08-25T05:11:43;25.30;99.90
14487;DHT22;7329;50.866;4.366;2022-08-25T05:13:48;25.30;99.90
14487;DHT22;7329;50.866;4.366;2022-08-25T05:15:52;25.30;99.90
14487;DHT22;7329;50.866;4.366;2022-08-25T05:17:54;25.20;99.90
14487;DHT22;7329;50.866;4.366;2022-08-25T05:19:57;25.20;99.90
14487;DHT22;7329;50.866;4.366;2022-08-25T05:21:59;25.20;99.90
14487;DHT22;7329;50.866;4.366;2022-08-25T05:24:02;25.30;99.90
14487;DHT22;7329;50.866;4.366;2022-08-25T05:26:07;25.20;99.90
14487;DHT22;7329;50.866;4.366;2022-08-25T05:28:10;25.20;99.90
14487;DHT22;7329;50.866;4.366;2022-08-25T05:30:15;25.30;99.90
14487;DHT22;7329;50.866;4.366;2022-08-25T05:32:18;25.20;99.90
14487;DHT22;7329;50.866;4.366;2022-08-25T05:34:20;25.20;99.90
14487;DHT22;7329;50.866;4.366;2022-08-25T05:36:24;25.20;99.90
14487;DHT22;7329;50.866;4.366;2022-08-25T05:38:28;25.20;99.90
14487;DHT22;7329;50.866;4.366;2022-08-25T05:40:31;25.20;99.90
14487;DHT22;7329;50.866;4.366;2022-08-25T05:42:33;25.20;99.90
14487;DHT22;7329;50.866;4.366;2022-08-25T05:44:37;25.20;99.90
14487;DHT22;7329;50.866;4.366;2022-08-25T05:46:40;25.20;99.90
14487;DHT22;7329;50.866;4.366;2022-08-25T05:48:43;25.30;99.90
14487;DHT22;7329;50.866;4.366;2022-08-25T05:50:50;25.20;99.90
14487;DHT22;7329;50.866;4.366;2022-08-25T05:52:53;25.30;99.90
14487;DHT22;7329;50.866;4.366;2022-08-25T05:54:58;25.30;99.90
14487;DHT22;7329;50.866;4.366;2022-08-25T05:57:00;25.30;99.90
14487;DHT22;7329;50.866;4.366;2022-08-25T05:59:02;25.20;99.90
14487;DHT22;7329;50.866;4.366;2022-08-25T06:01:05;25.30;99.90
14487;DHT22;7329;50.866;4.366;2022-08-25T06:03:22;25.30;99.90
14487;DHT22;7329;50.866;4.366;2022-08-25T06:05:25;25.30;99.90
14487;DHT22;7329;50.866;4.366;2022-08-25T06:07:27;25.30;99.90
14487;DHT22;7329;50.866;4.366;2022-08-25T06:09:30;25.30;99.90
14487;DHT22;7329;50.866;4.366;2022-08-25T06:11:32;25.30;99.90
14487;DHT22;7329;50.866;4.366;2022-08-25T06:13:34;25.20;99.90
14487;DHT22;7329;50.866;4.366;2022-08-25T06:15:36;25.30;99.90
14487;DHT22;7329;50.866;4.366;2022-08-25T06:17:39;25.30;99.90
14487;DHT22;7329;50.866;4.366;2022-08-25T06:19:44;25.30;99.90
14487;DHT22;7329;50.866;4.366;2022-08-25T06:21:46;25.30;99.90
14487;DHT22;7329;50.866;4.366;2022-08-25T06:23:49;25.30;99.90
14487;DHT22;7329;50.866;4.366;2022-08-25T06:25:52;25.30;99.90
14487;DHT22;7329;50.866;4.366;2022-08-25T06:27:56;25.30;99.90
14487;DHT22;7329;50.866;4.366;2022-08-25T06:29:59;25.30;99.90
14487;DHT22;7329;50.866;4.366;2022-08-25T06:32:04;25.30;99.90
14487;DHT22;7329;50.866;4.366;2022-08-25T06:34:06;25.30;99.90
14487;DHT22;7329;50.866;4.366;2022-08-25T06:36:10;25.30;99.90
14487;DHT22;7329;50.866;4.366;2022-08-25T06:38:12;25.30;99.90
14487;DHT22;7329;50.866;4.366;2022-08-25T06:40:15;25.30;99.90
14487;DHT22;7329;50.866;4.366;2022-08-25T06:42:17;25.30;99.90
14487;DHT22;7329;50.866;4.366;2022-08-25T06:44:20;25.30;99.90
14487;DHT22;7329;50.866;4.366;2022-08-25T06:46:24;25.30;99.90
14487;DHT22;7329;50.866;4.366;2022-08-25T06:48:27;25.30;99.90
14487;DHT22;7329;50.866;4.366;2022-08-25T06:50:29;25.30;99.90
14487;DHT22;7329;50.866;4.366;2022-08-25T06:52:32;25.30;99.90
14487;DHT22;7329;50.866;4.366;2022-08-25T06:54:35;25.30;99.90
14487;DHT22;7329;50.866;4.366;2022-08-25T06:56:39;25.30;99.90
14487;DHT22;7329;50.866;4.366;2022-08-25T06:58:41;25.30;99.90
14487;DHT22;7329;50.866;4.366;2022-08-25T07:00:44;25.20;99.90
14487;DHT22;7329;50.866;4.366;2022-08-25T07:02:46;25.20;99.90
14487;DHT22;7329;50.866;4.366;2022-08-25T07:04:48;25.20;99.90
14487;DHT22;7329;50.866;4.366;2022-08-25T07:06:53;25.30;99.90
14487;DHT22;7329;50.866;4.366;2022-08-25T07:08:57;25.30;99.90
14487;DHT22;7329;50.866;4.366;2022-08-25T07:11:04;25.30;99.90
14487;DHT22;7329;50.866;4.366;2022-08-25T07:13:06;25.30;99.90
14487;DHT22;7329;50.866;4.366;2022-08-25T07:15:09;25.30;99.90
14487;DHT22;7329;50.866;4.366;2022-08-25T07:17:11;25.40;99.90
14487;DHT22;7329;50.866;4.366;2022-08-25T07:19:30;25.50;99.90
14487;DHT22;7329;50.866;4.366;2022-08-25T07:21:34;25.50;99.90
14487;DHT22;7329;50.866;4.366;2022-08-25T07:23:37;25.50;99.90
14487;DHT22;7329;50.866;4.366;2022-08-25T07:25:41;25.40;99.90
14487;DHT22;7329;50.866;4.366;2022-08-25T07:27:44;25.50;99.90
14487;DHT22;7329;50.866;4.366;2022-08-25T07:29:46;25.40;99.90
14487;DHT22;7329;50.866;4.366;2022-08-25T07:31:50;25.40;99.90
14487;DHT22;7329;50.866;4.366;2022-08-25T07:33:52;25.50;99.90
14487;DHT22;7329;50.866;4.366;2022-08-25T07:36:12;25.50;99.90
14487;DHT22;7329;50.866;4.366;2022-08-25T07:38:14;25.40;99.90
14487;DHT22;7329;50.866;4.366;2022-08-25T07:40:19;25.50;99.90
14487;DHT22;7329;50.866;4.366;2022-08-25T07:42:23;25.40;99.90
14487;DHT22;7329;50.866;4.366;2022-08-25T07:44:27;25.60;99.90
14487;DHT22;7329;50.866;4.366;2022-08-25T07:46:32;25.70;99.90
14487;DHT22;7329;50.866;4.366;2022-08-25T07:48:34;25.80;99.90
14487;DHT22;7329;50.866;4.366;2022-08-25T07:50:39;25.90;99.90
14487;DHT22;7329;50.866;4.366;2022-08-25T07:52:43;25.90;99.90
14487;DHT22;7329;50.866;4.366;2022-08-25T07:54:46;25.90;99.90
14487;DHT22;7329;50.866;4.366;2022-08-25T07:56:53;25.80;99.90
14487;DHT22;7329;50.866;4.366;2022-08-25T07:58:57;25.70;99.90
14487;DHT22;7329;50.866;4.366;2022-08-25T08:00:59;25.80;99.90
14487;DHT22;7329;50.866;4.366;2022-08-25T08:03:03;25.80;99.90
14487;DHT22;7329;50.866;4.366;2022-08-25T08:05:07;25.90;99.90
14487;DHT22;7329;50.866;4.366;2022-08-25T08:07:11;25.90;99.90
14487;DHT22;7329;50.866;4.366;2022-08-25T08:09:14;25.90;99.90
14487;DHT22;7329;50.866;4.366;2022-08-25T08:11:18;26.00;99.90
14487;DHT22;7329;50.866;4.366;2022-08-25T08:13:21;26.10;99.90
14487;DHT22;7329;50.866;4.366;2022-08-25T08:15:27;26.10;99.90
14487;DHT22;7329;50.866;4.366;2022-08-25T08:17:29;26.10;99.90
14487;DHT22;7329;50.866;4.366;2022-08-25T08:19:32;26.10;99.90
14487;DHT22;7329;50.866;4.366;2022-08-25T08:21:35;26.10;99.90
14487;DHT22;7329;50.866;4.366;2022-08-25T08:23:37;26.10;99.90
14487;DHT22;7329;50.866;4.366;2022-08-25T08:25:40;26.10;99.90
14487;DHT22;7329;50.866;4.366;2022-08-25T08:27:42;26.10;99.90
14487;DHT22;7329;50.866;4.366;2022-08-25T08:29:45;26.20;99.90
14487;DHT22;7329;50.866;4.366;2022-08-25T08:31:49;26.20;99.90
14487;DHT22;7329;50.866;4.366;2022-08-25T08:33:52;26.30;99.90
14487;DHT22;7329;50.866;4.366;2022-08-25T08:35:57;26.20;99.90
14487;DHT22;7329;50.866;4.366;2022-08-25T08:38:00;26.20;99.90
14487;DHT22;7329;50.866;4.366;2022-08-25T08:40:04;26.10;99.90
14487;DHT22;7329;50.866;4.366;2022-08-25T08:42:18;26.20;99.90
14487;DHT22;7329;50.866;4.366;2022-08-25T08:44:27;26.20;99.90
14487;DHT22;7329;50.866;4.366;2022-08-25T08:46:38;26.20;99.90
14487;DHT22;7329;50.866;4.366;2022-08-25T08:48:55;26.20;99.90
14487;DHT22;7329;50.866;4.366;2022-08-25T08:51:06;26.30;99.90
14487;DHT22;7329;50.866;4.366;2022-08-25T08:53:18;26.30;99.90
14487;DHT22;7329;50.866;4.366;2022-08-25T08:55:28;26.40;99.90
14487;DHT22;7329;50.866;4.366;2022-08-25T08:57:34;26.40;99.90
14487;DHT22;7329;50.866;4.366;2022-08-25T08:59:48;26.50;99.90
14487;DHT22;7329;50.866;4.366;2022-08-25T09:01:58;26.50;99.90
14487;DHT22;7329;50.866;4.366;2022-08-25T09:04:08;26.50;99.90
14487;DHT22;7329;50.866;4.366;2022-08-25T09:06:16;26.50;99.90
14487;DHT22;7329;50.866;4.366;2022-08-25T09:08:19;26.50;99.90
14487;DHT22;7329;50.866;4.366;2022-08-25T09:10:22;26.50;99.90
14487;DHT22;7329;50.866;4.366;2022-08-25T09:12:32;26.50;99.90
14487;DHT22;7329;50.866;4.366;2022-08-25T09:14:45;26.50;99.90
14487;DHT22;7329;50.866;4.366;2022-08-25T09:16:53;26.50;99.90
14487;DHT22;7329;50.866;4.366;2022-08-25T09:19:08;26.50;99.90
14487;DHT22;7329;50.866;4.366;2022-08-25T09:21:21;26.70;99.90
14487;DHT22;7329;50.866;4.366;2022-08-25T09:23:35;26.70;99.90
14487;DHT22;7329;50.866;4.366;2022-08-25T09:25:49;26.70;99.90
14487;DHT22;7329;50.866;4.366;2022-08-25T09:28:02;26.70;99.90
14487;DHT22;7329;50.866;4.366;2022-08-25T09:30:09;26.80;99.90
14487;DHT22;7329;50.866;4.366;2022-08-25T09:32:13;26.80;99.90
14487;DHT22;7329;50.866;4.366;2022-08-25T09:34:20;26.80;99.90
14487;DHT22;7329;50.866;4.366;2022-08-25T09:36:23;26.80;99.90
14487;DHT22;7329;50.866;4.366;2022-08-25T09:38:27;26.80;99.90
14487;DHT22;7329;50.866;4.366;2022-08-25T09:40:33;26.90;99.90
14487;DHT22;7329;50.866;4.366;2022-08-25T09:42:51;26.80;99.90
14487;DHT22;7329;50.866;4.366;2022-08-25T09:44:54;26.90;99.90
14487;DHT22;7329;50.866;4.366;2022-08-25T09:47:01;26.90;99.90
14487;DHT22;7329;50.866;4.366;2022-08-25T09:49:11;26.90;99.90
14487;DHT22;7329;50.866;4.366;2022-08-25T09:51:19;27.00;99.90
14487;DHT22;7329;50.866;4.366;2022-08-25T09:53:25;27.00;99.90
14487;DHT22;7329;50.866;4.366;2022-08-25T09:55:30;27.10;99.90
14487;DHT22;7329;50.866;4.366;2022-08-25T09:57:43;27.10;99.90
14487;DHT22;7329;50.866;4.366;2022-08-25T09:59:46;27.20;99.90
14487;DHT22;7329;50.866;4.366;2022-08-25T10:01:54;27.20;99.90
14487;DHT22;7329;50.866;4.366;2022-08-25T10:04:01;27.20;99.90
14487;DHT22;7329;50.866;4.366;2022-08-25T10:06:10;27.20;99.90
14487;DHT22;7329;50.866;4.366;2022-08-25T10:08:27;27.20;99.80
14487;DHT22;7329;50.866;4.366;2022-08-25T10:10:34;27.20;99.60
14487;DHT22;7329;50.866;4.366;2022-08-25T10:12:42;27.20;99.40
14487;DHT22;7329;50.866;4.366;2022-08-25T10:14:46;27.20;99.20
14487;DHT22;7329;50.866;4.366;2022-08-25T10:16:51;27.30;99.10
14487;DHT22;7329;50.866;4.366;2022-08-25T10:19:06;27.40;99.30
14487;DHT22;7329;50.866;4.366;2022-08-25T10:21:12;27.40;98.90
14487;DHT22;7329;50.866;4.366;2022-08-25T10:23:15;27.40;98.90
14487;DHT22;7329;50.866;4.366;2022-08-25T10:25:23;27.40;99.70
14487;DHT22;7329;50.866;4.366;2022-08-25T10:27:39;27.40;99.90
14487;DHT22;7329;50.866;4.366;2022-08-25T10:30:11;27.40;99.90
14487;DHT22;7329;50.866;4.366;2022-08-25T10:32:20;27.30;99.90
14487;DHT22;7329;50.866;4.366;2022-08-25T10:34:34;27.20;99.90
14487;DHT22;7329;50.866;4.366;2022-08-25T10:36:46;27.20;99.90
14487;DHT22;7329;50.866;4.366;2022-08-25T10:38:53;27.20;99.90
14487;DHT22;7329;50.866;4.366;2022-08-25T10:41:13;27.20;99.90
14487;DHT22;7329;50.866;4.366;2022-08-25T10:43:24;27.20;99.90
14487;DHT22;7329;50.866;4.366;2022-08-25T10:45:36;27.00;99.90
14487;DHT22;7329;50.866;4.366;2022-08-25T10:48:16;26.90;99.90
14487;DHT22;7329;50.866;4.366;2022-08-25T10:50:26;26.90;99.90
14487;DHT22;7329;50.866;4.366;2022-08-25T10:52:36;27.00;99.90
14487;DHT22;7329;50.866;4.366;2022-08-25T10:54:44;26.90;99.90
14487;DHT22;7329;50.866;4.366;2022-08-25T10:56:54;26.90;99.90
14487;DHT22;7329;50.866;4.366;2022-08-25T11:02:17;27.00;99.90
14487;DHT22;7329;50.866;4.366;2022-08-25T11:04:30;27.00;99.90
14487;DHT22;7329;50.866;4.366;2022-08-25T11:06:39;27.00;99.90
14487;DHT22;7329;50.866;4.366;2022-08-25T11:08:49;26.90;99.90
14487;DHT22;7329;50.866;4.366;2022-08-25T11:10:57;26.90;99.90
14487;DHT22;7329;50.866;4.366;2022-08-25T11:13:09;26.90;99.90
14487;DHT22;7329;50.866;4.366;2022-08-25T11:15:18;26.80;99.90
14487;DHT22;7329;50.866;4.366;2022-08-25T11:17:23;26.90;99.90
14487;DHT22;7329;50.866;4.366;2022-08-25T11:19:29;26.80;99.90
14487;DHT22;7329;50.866;4.366;2022-08-25T11:21:41;26.80;99.90
14487;DHT22;7329;50.866;4.366;2022-08-25T11:23:49;26.80;99.90
14487;DHT22;7329;50.866;4.366;2022-08-25T11:25:59;26.80;99.90
14487;DHT22;7329;50.866;4.366;2022-08-25T11:28:10;26.80;99.90
14487;DHT22;7329;50.866;4.366;2022-08-25T11:30:16;26.80;99.90
14487;DHT22;7329;50.866;4.366;2022-08-25T11:32:19;26.80;99.90
14487;DHT22;7329;50.866;4.366;2022-08-25T11:34:24;26.80;99.90
14487;DHT22;7329;50.866;4.366;2022-08-25T11:36:32;26.90;99.90
14487;DHT22;7329;50.866;4.366;2022-08-25T11:38:45;26.90;99.90
14487;DHT22;7329;50.866;4.366;2022-08-25T11:41:04;26.90;99.90
14487;DHT22;7329;50.866;4.366;2022-08-25T11:43:39;26.90;99.90
14487;DHT22;7329;50.866;4.366;2022-08-25T11:45:56;26.90;99.90
14487;DHT22;7329;50.866;4.366;2022-08-25T11:48:12;26.90;99.90
14487;DHT22;7329;50.866;4.366;2022-08-25T11:50:26;26.90;99.90
14487;DHT22;7329;50.866;4.366;2022-08-25T11:52:44;26.90;99.90
14487;DHT22;7329;50.866;4.366;2022-08-25T11:54:49;26.80;99.90
14487;DHT22;7329;50.866;4.366;2022-08-25T11:56:59;26.80;99.90
14487;DHT22;7329;50.866;4.366;2022-08-25T11:59:03;26.80;99.90
14487;DHT22;7329;50.866;4.366;2022-08-25T12:01:10;26.70;99.90
14487;DHT22;7329;50.866;4.366;2022-08-25T12:03:45;26.80;99.90
14487;DHT22;7329;50.866;4.366;2022-08-25T12:05:51;26.90;99.90
14487;DHT22;7329;50.866;4.366;2022-08-25T12:08:12;26.90;99.90
14487;DHT22;7329;50.866;4.366;2022-08-25T12:13:39;27.10;99.90
14487;DHT22;7329;50.866;4.366;2022-08-25T12:16:02;27.10;99.90
14487;DHT22;7329;50.866;4.366;2022-08-25T12:18:10;27.10;99.90
14487;DHT22;7329;50.866;4.366;2022-08-25T12:22:54;27.10;99.90
14487;DHT22;7329;50.866;4.366;2022-08-25T12:25:01;27.20;99.90
14487;DHT22;7329;50.866;4.366;2022-08-25T12:27:09;27.20;99.90
14487;DHT22;7329;50.866;4.366;2022-08-25T12:29:18;27.20;99.90
14487;DHT22;7329;50.866;4.366;2022-08-25T12:31:49;27.20;99.90
14487;DHT22;7329;50.866;4.366;2022-08-25T12:34:08;27.20;99.90
14487;DHT22;7329;50.866;4.366;2022-08-25T12:36:25;27.20;99.90
14487;DHT22;7329;50.866;4.366;2022-08-25T12:38:31;27.20;99.90
14487;DHT22;7329;50.866;4.366;2022-08-25T12:40:38;27.20;99.90
14487;DHT22;7329;50.866;4.366;2022-08-25T12:43:02;27.20;99.90
14487;DHT22;7329;50.866;4.366;2022-08-25T12:45:30;27.20;99.90
14487;DHT22;7329;50.866;4.366;2022-08-25T12:47:35;27.30;99.90
14487;DHT22;7329;50.866;4.366;2022-08-25T12:49:37;27.30;99.90
14487;DHT22;7329;50.866;4.366;2022-08-25T12:51:51;27.30;99.90
14487;DHT22;7329;50.866;4.366;2022-08-25T12:54:00;27.30;99.90
14487;DHT22;7329;50.866;4.366;2022-08-25T12:56:21;27.40;99.90
14487;DHT22;7329;50.866;4.366;2022-08-25T12:58:27;27.40;99.90
14487;DHT22;7329;50.866;4.366;2022-08-25T13:00:50;27.50;99.90
14487;DHT22;7329;50.866;4.366;2022-08-25T13:03:20;27.50;99.90
14487;DHT22;7329;50.866;4.366;2022-08-25T13:05:51;27.50;99.90
14487;DHT22;7329;50.866;4.366;2022-08-25T13:08:09;27.60;99.90
14487;DHT22;7329;50.866;4.366;2022-08-25T13:10:33;27.60;99.90
14487;DHT22;7329;50.866;4.366;2022-08-25T13:12:44;27.50;99.90
14487;DHT22;7329;50.866;4.366;2022-08-25T13:14:52;27.50;99.90
14487;DHT22;7329;50.866;4.366;2022-08-25T13:16:56;27.50;99.90
14487;DHT22;7329;50.866;4.366;2022-08-25T13:19:04;27.50;99.90
14487;DHT22;7329;50.866;4.366;2022-08-25T13:21:16;27.50;99.90
14487;DHT22;7329;50.866;4.366;2022-08-25T13:23:24;27.50;99.90
14487;DHT22;7329;50.866;4.366;2022-08-25T13:25:28;27.40;99.90
14487;DHT22;7329;50.866;4.366;2022-08-25T13:27:34;27.50;99.90
14487;DHT22;7329;50.866;4.366;2022-08-25T13:29:49;27.50;99.90
14487;DHT22;7329;50.866;4.366;2022-08-25T13:31:56;27.40;99.90
14487;DHT22;7329;50.866;4.366;2022-08-25T13:34:02;27.40;99.90
14487;DHT22;7329;50.866;4.366;2022-08-25T13:36:05;27.40;99.90
14487;DHT22;7329;50.866;4.366;2022-08-25T13:38:25;27.40;99.90